CDT,Max TemperatureF,Mean TemperatureF,Min TemperatureF,Max Dew PointF,MeanDew PointF,Min DewpointF,Max Humidity, Mean Humidity, Min Humidity, Max Sea Level PressureIn, Mean Sea Level PressureIn, Min Sea Level PressureIn, Max VisibilityMiles, Mean VisibilityMiles, Min VisibilityMiles, Max Wind SpeedMPH, Mean Wind SpeedMPH, Max Gust SpeedMPH,PrecipitationIn, CloudCover, Events, WindDirDegrees
2013-9-1,89,74,59,63,53,44,75,44,21,30.04,29.95,29.81,10,10,10,21,11,28,0.00,0,,9
2013-9-2,90,71,52,55,52,49,86,55,27,30.10,30.04,29.98,10,10,9,8,3,,0.00,0,,145
2013-9-3,95,77,59,56,54,49,83,49,24,30.06,29.99,29.93,10,10,10,17,6,23,0.00,0,,157
2013-9-4,98,81,64,57,56,54,70,45,24,30.04,30.01,29.96,10,10,10,18,7,28,0.00,0,,155
2013-9-5,99,80,61,59,55,52,72,45,23,30.08,30.04,29.99,10,10,10,14,5,21,0.00,0,,152
2013-9-6,103,84,64,60,53,46,73,40,15,30.01,29.94,29.85,10,10,10,17,7,23,0.00,0,,195
2013-9-7,105,87,69,57,54,49,65,36,15,29.91,29.86,29.81,10,10,10,13,7,17,0.00,0,,216
2013-9-8,103,86,68,57,54,50,61,36,17,29.86,29.80,29.73,10,10,10,14,7,24,0.00,0,,205
2013-9-9,97,85,73,57,54,49,51,36,21,29.80,29.76,29.71,10,10,10,20,12,32,0.00,0,,201
2013-9-10,96,84,71,66,59,55,76,47,27,30.04,29.91,29.80,10,10,10,24,10,37,T,3,Rain-Thunderstorm,208
2013-9-11,92,79,66,70,65,60,100,76,37,30.14,30.07,30.00,10,8,1,16,6,22,0.49,4,Rain-Thunderstorm,83
2013-9-12,73,71,68,70,67,66,100,93,83,30.25,30.19,30.12,10,8,2,12,3,16,0.35,7,Rain,98
2013-9-13,72,65,58,68,59,52,96,82,51,30.21,30.14,30.04,10,10,7,13,4,20,0.21,5,Rain,112
2013-9-14,79,69,59,65,58,52,87,72,58,30.03,29.92,29.82,10,10,10,16,7,24,T,3,Rain,165
2013-9-15,72,67,61,67,61,55,96,84,75,30.23,30.02,29.83,10,8,2,20,9,28,0.01,6,Rain,42
2013-9-16,61,59,56,58,56,54,100,94,78,30.28,30.22,30.16,10,7,2,14,8,23,0.12,8,Rain,83
2013-9-17,87,73,58,67,63,58,100,83,48,30.15,29.96,29.76,10,6,1,17,7,28,0.01,6,,166
2013-9-18,93,81,68,65,64,60,87,61,38,29.79,29.69,29.61,10,10,10,17,12,28,0.00,0,,197
2013-9-19,77,65,53,64,58,50,94,72,46,30.10,29.85,29.67,10,9,2,25,10,33,0.31,3,Rain,342
2013-9-20,75,61,47,54,48,44,96,68,37,30.16,30.09,30.01,10,10,9,7,4,,0.00,0,,310
2013-9-21,84,67,50,53,49,46,86,56,31,30.01,29.91,29.80,10,10,10,16,7,23,0.00,0,,214
2013-9-22,85,72,58,52,49,45,67,48,30,29.80,29.72,29.63,10,10,10,25,13,39,0.00,0,,169
2013-9-23,80,69,58,52,48,45,72,54,30,29.78,29.60,29.45,10,10,10,31,15,46,T,2,,201
2013-9-24,80,64,47,52,48,42,86,62,28,29.99,29.91,29.79,10,9,2,22,12,32,0.00,0,,323
2013-9-25,88,67,46,53,48,44,93,60,27,29.96,29.76,29.56,10,9,2,23,7,37,0.00,0,,144
2013-9-26,96,80,64,55,53,48,65,42,23,29.62,29.57,29.52,10,10,10,20,15,36,0.00,0,,176
2013-9-27,91,72,52,67,58,53,100,65,34,29.80,29.67,29.58,10,8,1,23,16,37,1.18,4,Rain-Thunderstorm,196
2013-9-28,70,58,45,54,45,36,100,74,30,30.11,29.98,29.80,10,8,2,23,13,32,0.19,2,Rain-Thunderstorm,314
2013-9-29,79,61,43,45,42,39,89,56,25,30.11,29.98,29.85,10,10,7,18,6,30,0.00,0,,208
2013-9-30,82,63,44,51,47,43,96,60,30,29.84,29.78,29.71,10,10,10,12,5,,0.00,0,,183